Terminal Aerodrome Forecast
Issued by NWS

Home | Current Version | Previous Version | Text Only | Print | Product List | Glossary On
Versions: 1 2 3 4 5 6 7 8 9 10 11 12 13 14 15
000
FTUS44 KLIX 301700
TAFMCB
TAF
KMCB 301728Z 3018/3118 02005KT P6SM FEW250
     FM310700 00000KT P6SM BKN120=

USA.gov is the U.S. government's official web portal to all federal, state and local government web resources and services.